sensor_id;sensor_type;location;lat;lon;timestamp;pressure;altitude;pressure_sealevel;temperature;humidity
71361;BME280;59166;48.908;1.870;2023-08-07T00:02:22;100788.28;;;12.91;100.00
71361;BME280;59166;48.908;1.870;2023-08-07T00:07:23;100792.59;;;12.82;100.00
71361;BME280;59166;48.908;1.870;2023-08-07T00:12:25;100786.88;;;12.78;100.00
71361;BME280;59166;48.908;1.870;2023-08-07T00:17:26;100783.63;;;12.76;100.00
71361;BME280;59166;48.908;1.870;2023-08-07T00:22:27;100791.47;;;12.73;100.00
71361;BME280;59166;48.908;1.870;2023-08-07T00:27:29;100776.00;;;12.68;100.00
71361;BME280;59166;48.908;1.870;2023-08-07T00:32:30;100780.03;;;12.66;100.00
71361;BME280;59166;48.908;1.870;2023-08-07T00:37:31;100787.06;;;12.62;100.00
71361;BME280;59166;48.908;1.870;2023-08-07T00:42:34;100788.63;;;12.53;100.00
71361;BME280;59166;48.908;1.870;2023-08-07T00:47:35;100794.28;;;12.46;100.00
71361;BME280;59166;48.908;1.870;2023-08-07T00:52:36;100789.66;;;12.47;100.00
71361;BME280;59166;48.908;1.870;2023-08-07T00:57:39;100784.25;;;12.47;100.00
71361;BME280;59166;48.908;1.870;2023-08-07T01:02:40;100784.22;;;12.42;100.00
71361;BME280;59166;48.908;1.870;2023-08-07T01:07:41;100777.13;;;12.35;100.00
71361;BME280;59166;48.908;1.870;2023-08-07T01:12:50;100772.50;;;12.31;100.00
71361;BME280;59166;48.908;1.870;2023-08-07T01:17:54;100767.06;;;12.31;100.00
71361;BME280;59166;48.908;1.870;2023-08-07T01:22:57;100772.44;;;12.26;100.00
71361;BME280;59166;48.908;1.870;2023-08-07T01:28:02;100765.59;;;12.18;100.00
71361;BME280;59166;48.908;1.870;2023-08-07T01:33:12;100767.72;;;12.11;100.00
71361;BME280;59166;48.908;1.870;2023-08-07T01:38:16;100760.09;;;12.08;100.00
71361;BME280;59166;48.908;1.870;2023-08-07T01:43:18;100765.53;;;12.08;100.00
71361;BME280;59166;48.908;1.870;2023-08-07T01:48:19;100764.13;;;12.06;100.00
71361;BME280;59166;48.908;1.870;2023-08-07T01:53:22;100764.94;;;12.06;100.00
71361;BME280;59166;48.908;1.870;2023-08-07T01:58:23;100756.28;;;12.04;100.00
71361;BME280;59166;48.908;1.870;2023-08-07T02:03:24;100754.03;;;11.96;100.00
71361;BME280;59166;48.908;1.870;2023-08-07T02:08:26;100753.50;;;11.99;100.00
71361;BME280;59166;48.908;1.870;2023-08-07T02:13:27;100754.63;;;12.03;100.00
71361;BME280;59166;48.908;1.870;2023-08-07T02:18:28;100758.38;;;11.97;100.00
71361;BME280;59166;48.908;1.870;2023-08-07T02:23:30;100756.19;;;11.94;100.00
71361;BME280;59166;48.908;1.870;2023-08-07T02:28:31;100761.56;;;11.89;100.00
71361;BME280;59166;48.908;1.870;2023-08-07T02:33:32;100762.69;;;11.93;100.00
71361;BME280;59166;48.908;1.870;2023-08-07T02:38:34;100762.06;;;11.86;100.00
71361;BME280;59166;48.908;1.870;2023-08-07T02:43:35;100756.66;;;11.86;100.00
71361;BME280;59166;48.908;1.870;2023-08-07T02:48:36;100756.34;;;11.82;100.00
71361;BME280;59166;48.908;1.870;2023-08-07T02:53:38;100763.09;;;11.80;100.00
71361;BME280;59166;48.908;1.870;2023-08-07T02:58:39;100755.44;;;11.72;100.00
71361;BME280;59166;48.908;1.870;2023-08-07T03:03:40;100760.56;;;11.68;100.00
71361;BME280;59166;48.908;1.870;2023-08-07T03:08:42;100762.19;;;11.69;100.00
71361;BME280;59166;48.908;1.870;2023-08-07T03:13:44;100773.00;;;11.69;100.00
71361;BME280;59166;48.908;1.870;2023-08-07T03:18:44;100775.72;;;11.69;100.00
71361;BME280;59166;48.908;1.870;2023-08-07T03:23:47;100778.63;;;11.63;100.00
71361;BME280;59166;48.908;1.870;2023-08-07T03:28:48;100770.53;;;11.63;100.00
71361;BME280;59166;48.908;1.870;2023-08-07T03:33:49;100777.00;;;11.62;100.00
71361;BME280;59166;48.908;1.870;2023-08-07T03:38:51;100775.38;;;11.61;100.00
71361;BME280;59166;48.908;1.870;2023-08-07T03:43:52;100773.75;;;11.60;100.00
71361;BME280;59166;48.908;1.870;2023-08-07T03:48:53;100764.03;;;11.64;100.00
71361;BME280;59166;48.908;1.870;2023-08-07T03:53:55;100763.84;;;11.70;100.00
71361;BME280;59166;48.908;1.870;2023-08-07T03:58:56;100772.81;;;11.76;100.00
71361;BME280;59166;48.908;1.870;2023-08-07T04:03:57;100770.91;;;11.76;100.00
71361;BME280;59166;48.908;1.870;2023-08-07T04:08:59;100770.69;;;11.78;100.00
71361;BME280;59166;48.908;1.870;2023-08-07T04:14:00;100772.88;;;11.81;100.00
71361;BME280;59166;48.908;1.870;2023-08-07T04:19:01;100766.09;;;11.78;100.00
71361;BME280;59166;48.908;1.870;2023-08-07T04:24:04;100774.75;;;11.80;100.00
71361;BME280;59166;48.908;1.870;2023-08-07T04:29:05;100778.28;;;11.81;100.00
71361;BME280;59166;48.908;1.870;2023-08-07T04:34:06;100792.94;;;11.85;100.00
71361;BME280;59166;48.908;1.870;2023-08-07T04:39:09;100792.72;;;11.92;100.00
71361;BME280;59166;48.908;1.870;2023-08-07T04:44:09;100794.09;;;11.94;100.00
71361;BME280;59166;48.908;1.870;2023-08-07T04:49:10;100796.28;;;11.97;100.00
71361;BME280;59166;48.908;1.870;2023-08-07T04:54:13;100786.06;;;12.04;100.00
71361;BME280;59166;48.908;1.870;2023-08-07T04:59:14;100784.81;;;12.17;100.00
71361;BME280;59166;48.908;1.870;2023-08-07T05:04:14;100786.22;;;12.24;100.00
71361;BME280;59166;48.908;1.870;2023-08-07T05:09:17;100788.97;;;12.29;100.00
71361;BME280;59166;48.908;1.870;2023-08-07T05:14:18;100796.88;;;12.31;100.00
71361;BME280;59166;48.908;1.870;2023-08-07T05:19:18;100803.41;;;12.35;100.00
71361;BME280;59166;48.908;1.870;2023-08-07T05:24:21;100804.81;;;12.43;100.00
71361;BME280;59166;48.908;1.870;2023-08-07T05:29:22;100811.34;;;12.47;100.00
71361;BME280;59166;48.908;1.870;2023-08-07T05:34:22;100810.56;;;12.51;100.00
71361;BME280;59166;48.908;1.870;2023-08-07T05:39:25;100815.50;;;12.59;100.00
71361;BME280;59166;48.908;1.870;2023-08-07T05:44:26;100814.47;;;12.70;100.00
71361;BME280;59166;48.908;1.870;2023-08-07T05:49:27;100822.94;;;12.79;100.00
71361;BME280;59166;48.908;1.870;2023-08-07T05:54:29;100827.38;;;12.90;100.00
71361;BME280;59166;48.908;1.870;2023-08-07T05:59:30;100827.41;;;13.00;100.00
71361;BME280;59166;48.908;1.870;2023-08-07T06:04:31;100826.59;;;13.05;100.00
71361;BME280;59166;48.908;1.870;2023-08-07T06:09:33;100828.00;;;13.17;100.00
71361;BME280;59166;48.908;1.870;2023-08-07T06:14:34;100842.72;;;13.26;100.00
71361;BME280;59166;48.908;1.870;2023-08-07T06:19:35;100836.19;;;13.22;100.00
71361;BME280;59166;48.908;1.870;2023-08-07T06:24:37;100842.78;;;13.36;100.00
71361;BME280;59166;48.908;1.870;2023-08-07T06:29:38;100846.34;;;13.47;100.00
71361;BME280;59166;48.908;1.870;2023-08-07T06:34:39;100852.59;;;13.53;100.00
71361;BME280;59166;48.908;1.870;2023-08-07T06:39:41;100843.66;;;13.62;100.00
71361;BME280;59166;48.908;1.870;2023-08-07T06:44:42;100855.94;;;13.75;100.00
71361;BME280;59166;48.908;1.870;2023-08-07T06:49:43;100854.31;;;13.79;100.00
71361;BME280;59166;48.908;1.870;2023-08-07T06:54:45;100859.47;;;13.70;100.00
71361;BME280;59166;48.908;1.870;2023-08-07T06:59:46;100867.09;;;13.78;100.00
71361;BME280;59166;48.908;1.870;2023-08-07T07:04:47;100864.13;;;13.80;100.00
71361;BME280;59166;48.908;1.870;2023-08-07T07:09:50;100865.47;;;13.77;100.00
71361;BME280;59166;48.908;1.870;2023-08-07T07:14:50;100879.34;;;13.86;100.00
71361;BME280;59166;48.908;1.870;2023-08-07T07:19:51;100894.84;;;14.01;100.00
71361;BME280;59166;48.908;1.870;2023-08-07T07:24:53;100883.16;;;14.05;100.00
71361;BME280;59166;48.908;1.870;2023-08-07T07:29:54;100882.09;;;14.16;100.00
71361;BME280;59166;48.908;1.870;2023-08-07T07:34:55;100884.28;;;14.29;100.00
71361;BME280;59166;48.908;1.870;2023-08-07T07:39:58;100892.47;;;14.34;100.00
71361;BME280;59166;48.908;1.870;2023-08-07T07:44:59;100893.00;;;14.36;100.00
71361;BME280;59166;48.908;1.870;2023-08-07T07:50:07;100909.88;;;14.64;100.00
71361;BME280;59166;48.908;1.870;2023-08-07T07:55:10;100897.88;;;14.85;100.00
71361;BME280;59166;48.908;1.870;2023-08-07T08:00:12;100912.56;;;15.04;100.00
71361;BME280;59166;48.908;1.870;2023-08-07T08:05:13;100919.63;;;15.15;100.00
71361;BME280;59166;48.908;1.870;2023-08-07T08:10:15;100915.50;;;15.28;100.00
71361;BME280;59166;48.908;1.870;2023-08-07T08:15:16;100912.47;;;15.50;100.00
71361;BME280;59166;48.908;1.870;2023-08-07T08:20:17;100908.59;;;15.66;100.00
71361;BME280;59166;48.908;1.870;2023-08-07T08:25:19;100903.25;;;16.00;100.00
71361;BME280;59166;48.908;1.870;2023-08-07T08:30:21;100908.34;;;16.16;100.00
71361;BME280;59166;48.908;1.870;2023-08-07T08:35:22;100921.16;;;16.55;100.00
71361;BME280;59166;48.908;1.870;2023-08-07T08:40:25;100909.84;;;17.00;99.73
71361;BME280;59166;48.908;1.870;2023-08-07T08:45:26;100915.19;;;17.15;100.00
71361;BME280;59166;48.908;1.870;2023-08-07T08:50:28;100917.84;;;17.20;100.00
71361;BME280;59166;48.908;1.870;2023-08-07T08:55:31;100920.84;;;17.90;94.71
71361;BME280;59166;48.908;1.870;2023-08-07T09:00:32;100918.03;;;17.95;92.56
71361;BME280;59166;48.908;1.870;2023-08-07T09:05:35;100921.47;;;18.24;89.01
71361;BME280;59166;48.908;1.870;2023-08-07T09:10:39;100930.53;;;19.08;90.19
71361;BME280;59166;48.908;1.870;2023-08-07T09:15:41;100921.84;;;18.87;84.82
71361;BME280;59166;48.908;1.870;2023-08-07T09:20:44;100931.53;;;18.48;89.19
71361;BME280;59166;48.908;1.870;2023-08-07T09:25:46;100931.91;;;19.06;84.05
71361;BME280;59166;48.908;1.870;2023-08-07T09:30:47;100927.03;;;19.03;84.93
71361;BME280;59166;48.908;1.870;2023-08-07T09:35:47;100930.78;;;19.66;79.51
71361;BME280;59166;48.908;1.870;2023-08-07T09:40:50;100917.16;;;20.02;75.15
71361;BME280;59166;48.908;1.870;2023-08-07T09:45:50;100916.13;;;20.70;77.74
71361;BME280;59166;48.908;1.870;2023-08-07T09:50:51;100909.31;;;20.09;78.98
71361;BME280;59166;48.908;1.870;2023-08-07T09:55:53;100903.94;;;20.62;75.19
71361;BME280;59166;48.908;1.870;2023-08-07T10:00:54;100890.50;;;20.83;70.44
71361;BME280;59166;48.908;1.870;2023-08-07T10:05:55;100894.94;;;21.23;70.34
71361;BME280;59166;48.908;1.870;2023-08-07T10:10:58;100894.25;;;21.48;69.20
71361;BME280;59166;48.908;1.870;2023-08-07T10:15:59;100874.16;;;21.00;65.64
71361;BME280;59166;48.908;1.870;2023-08-07T10:21:01;100888.81;;;20.07;73.12
71361;BME280;59166;48.908;1.870;2023-08-07T10:26:05;100900.31;;;19.13;76.08
71361;BME280;59166;48.908;1.870;2023-08-07T10:31:07;100885.72;;;19.72;81.53
71361;BME280;59166;48.908;1.870;2023-08-07T10:36:10;100894.88;;;20.62;68.46
71361;BME280;59166;48.908;1.870;2023-08-07T10:41:14;100881.56;;;21.30;63.61
71361;BME280;59166;48.908;1.870;2023-08-07T10:46:15;100881.56;;;20.91;63.00
71361;BME280;59166;48.908;1.870;2023-08-07T10:51:17;100886.44;;;20.14;68.30
71361;BME280;59166;48.908;1.870;2023-08-07T10:56:29;100897.50;;;19.59;70.29
71361;BME280;59166;48.908;1.870;2023-08-07T11:01:40;100883.78;;;20.22;73.15
71361;BME280;59166;48.908;1.870;2023-08-07T11:06:42;100870.03;;;21.20;65.36
71361;BME280;59166;48.908;1.870;2023-08-07T11:11:45;100882.50;;;21.65;64.28
71361;BME280;59166;48.908;1.870;2023-08-07T11:16:47;100880.66;;;21.13;65.27
71361;BME280;59166;48.908;1.870;2023-08-07T11:21:48;100878.09;;;21.64;63.91
71361;BME280;59166;48.908;1.870;2023-08-07T11:26:50;100876.19;;;21.25;60.65
71361;BME280;59166;48.908;1.870;2023-08-07T11:31:51;100869.91;;;21.25;62.90
71361;BME280;59166;48.908;1.870;2023-08-07T11:36:52;100869.94;;;21.81;60.55
71361;BME280;59166;48.908;1.870;2023-08-07T11:41:54;100867.84;;;22.04;63.21
71361;BME280;59166;48.908;1.870;2023-08-07T11:46:55;100854.56;;;22.06;64.65
71361;BME280;59166;48.908;1.870;2023-08-07T11:51:55;100853.03;;;21.66;60.04
71361;BME280;59166;48.908;1.870;2023-08-07T11:56:57;100850.34;;;21.26;65.63
71361;BME280;59166;48.908;1.870;2023-08-07T12:01:58;100844.19;;;22.03;64.87
71361;BME280;59166;48.908;1.870;2023-08-07T12:06:59;100837.88;;;22.63;58.91
71361;BME280;59166;48.908;1.870;2023-08-07T12:12:02;100828.84;;;23.00;58.14
71361;BME280;59166;48.908;1.870;2023-08-07T12:17:03;100840.06;;;23.33;58.69
71361;BME280;59166;48.908;1.870;2023-08-07T12:22:06;100827.69;;;23.39;52.62
71361;BME280;59166;48.908;1.870;2023-08-07T12:27:08;100825.53;;;23.74;59.67
71361;BME280;59166;48.908;1.870;2023-08-07T12:32:08;100818.50;;;23.56;57.58
71361;BME280;59166;48.908;1.870;2023-08-07T12:37:09;100816.97;;;22.62;57.05
71361;BME280;59166;48.908;1.870;2023-08-07T12:42:11;100814.09;;;22.15;62.58
71361;BME280;59166;48.908;1.870;2023-08-07T12:47:12;100816.03;;;21.72;60.81
71361;BME280;59166;48.908;1.870;2023-08-07T12:52:12;100810.38;;;21.77;61.55
71361;BME280;59166;48.908;1.870;2023-08-07T12:57:14;100809.53;;;23.00;62.44
71361;BME280;59166;48.908;1.870;2023-08-07T13:02:15;100810.31;;;23.68;53.15
71361;BME280;59166;48.908;1.870;2023-08-07T13:07:15;100800.44;;;24.08;56.77
71361;BME280;59166;48.908;1.870;2023-08-07T13:12:17;100810.50;;;24.58;52.21
71361;BME280;59166;48.908;1.870;2023-08-07T13:17:18;100809.09;;;23.77;53.67
71361;BME280;59166;48.908;1.870;2023-08-07T13:22:19;100807.22;;;22.73;53.86
71361;BME280;59166;48.908;1.870;2023-08-07T13:27:21;100804.41;;;21.92;58.78
71361;BME280;59166;48.908;1.870;2023-08-07T13:32:22;100808.72;;;21.67;62.89
71361;BME280;59166;48.908;1.870;2023-08-07T13:37:23;100809.34;;;21.38;59.70
71361;BME280;59166;48.908;1.870;2023-08-07T13:47:25;100798.88;;;21.83;64.22
71361;BME280;59166;48.908;1.870;2023-08-07T13:52:26;100787.34;;;23.26;54.28
71361;BME280;59166;48.908;1.870;2023-08-07T13:57:28;100783.78;;;23.96;53.79
71361;BME280;59166;48.908;1.870;2023-08-07T14:02:28;100794.44;;;23.65;51.00
71361;BME280;59166;48.908;1.870;2023-08-07T14:07:29;100797.56;;;22.96;50.69
71361;BME280;59166;48.908;1.870;2023-08-07T14:12:31;100795.47;;;22.93;54.89
71361;BME280;59166;48.908;1.870;2023-08-07T14:17:32;100794.81;;;23.25;52.99
71361;BME280;59166;48.908;1.870;2023-08-07T14:22:32;100800.31;;;23.34;52.67
71361;BME280;59166;48.908;1.870;2023-08-07T14:27:34;100799.81;;;22.94;51.94
71361;BME280;59166;48.908;1.870;2023-08-07T14:32:35;100791.88;;;22.55;55.75
71361;BME280;59166;48.908;1.870;2023-08-07T14:37:36;100787.56;;;22.19;54.35
71361;BME280;59166;48.908;1.870;2023-08-07T14:42:38;100791.94;;;21.94;57.82
71361;BME280;59166;48.908;1.870;2023-08-07T14:47:38;100788.88;;;21.79;59.56
71361;BME280;59166;48.908;1.870;2023-08-07T14:52:39;100801.81;;;21.87;58.88
71361;BME280;59166;48.908;1.870;2023-08-07T14:57:41;100793.34;;;22.52;57.05
71361;BME280;59166;48.908;1.870;2023-08-07T15:02:41;100768.34;;;22.66;53.59
71361;BME280;59166;48.908;1.870;2023-08-07T15:07:42;100771.13;;;22.40;60.41
71361;BME280;59166;48.908;1.870;2023-08-07T15:12:44;100769.69;;;22.60;55.12
71361;BME280;59166;48.908;1.870;2023-08-07T15:17:45;100771.97;;;22.23;57.41
71361;BME280;59166;48.908;1.870;2023-08-07T15:22:46;100765.22;;;21.86;56.92
71361;BME280;59166;48.908;1.870;2023-08-07T15:27:48;100775.84;;;22.39;56.70
71361;BME280;59166;48.908;1.870;2023-08-07T15:32:49;100776.88;;;22.09;56.26
71361;BME280;59166;48.908;1.870;2023-08-07T15:37:49;100778.66;;;22.05;57.43
71361;BME280;59166;48.908;1.870;2023-08-07T15:42:51;100766.84;;;21.96;57.54
71361;BME280;59166;48.908;1.870;2023-08-07T15:47:52;100766.06;;;21.78;58.39
71361;BME280;59166;48.908;1.870;2023-08-07T15:52:53;100772.50;;;21.74;58.56
71361;BME280;59166;48.908;1.870;2023-08-07T15:57:55;100771.22;;;21.88;62.60
71361;BME280;59166;48.908;1.870;2023-08-07T16:02:56;100753.44;;;21.77;64.39
71361;BME280;59166;48.908;1.870;2023-08-07T16:07:56;100749.53;;;21.61;64.50
71361;BME280;59166;48.908;1.870;2023-08-07T16:12:58;100748.69;;;21.69;62.10
71361;BME280;59166;48.908;1.870;2023-08-07T16:17:59;100754.19;;;21.61;61.96
71361;BME280;59166;48.908;1.870;2023-08-07T16:23:00;100751.28;;;21.57;63.05
71361;BME280;59166;48.908;1.870;2023-08-07T16:28:03;100746.41;;;21.45;60.62
71361;BME280;59166;48.908;1.870;2023-08-07T16:33:04;100738.00;;;21.42;62.71
71361;BME280;59166;48.908;1.870;2023-08-07T16:38:05;100741.09;;;21.40;59.64
71361;BME280;59166;48.908;1.870;2023-08-07T16:43:07;100732.19;;;21.43;60.27
71361;BME280;59166;48.908;1.870;2023-08-07T16:48:07;100725.06;;;21.42;60.48
71361;BME280;59166;48.908;1.870;2023-08-07T16:53:08;100721.81;;;21.23;61.45
71361;BME280;59166;48.908;1.870;2023-08-07T16:58:10;100719.22;;;21.18;63.00
71361;BME280;59166;48.908;1.870;2023-08-07T17:03:11;100711.13;;;21.13;62.44
71361;BME280;59166;48.908;1.870;2023-08-07T17:08:11;100710.31;;;21.13;60.09
71361;BME280;59166;48.908;1.870;2023-08-07T17:13:14;100713.59;;;21.15;63.33
71361;BME280;59166;48.908;1.870;2023-08-07T17:18:14;100720.97;;;21.06;62.12
71361;BME280;59166;48.908;1.870;2023-08-07T17:23:15;100708.69;;;20.94;62.38
71361;BME280;59166;48.908;1.870;2023-08-07T17:28:17;100715.88;;;20.82;60.45
71361;BME280;59166;48.908;1.870;2023-08-07T17:33:18;100714.22;;;20.64;60.81
71361;BME280;59166;48.908;1.870;2023-08-07T17:38:18;100713.81;;;20.48;62.21
71361;BME280;59166;48.908;1.870;2023-08-07T17:43:20;100719.91;;;20.36;66.26
71361;BME280;59166;48.908;1.870;2023-08-07T17:48:21;100725.38;;;20.36;67.18
71361;BME280;59166;48.908;1.870;2023-08-07T17:53:21;100724.97;;;20.21;69.07
71361;BME280;59166;48.908;1.870;2023-08-07T17:58:24;100719.72;;;20.11;73.09
71361;BME280;59166;48.908;1.870;2023-08-07T18:03:25;100722.50;;;19.97;72.51
71361;BME280;59166;48.908;1.870;2023-08-07T18:08:25;100725.03;;;19.85;73.60
71361;BME280;59166;48.908;1.870;2023-08-07T18:13:27;100731.06;;;19.73;71.73
71361;BME280;59166;48.908;1.870;2023-08-07T18:18:28;100723.31;;;19.53;74.73
71361;BME280;59166;48.908;1.870;2023-08-07T18:23:29;100725.47;;;19.42;73.67
71361;BME280;59166;48.908;1.870;2023-08-07T18:28:31;100724.50;;;19.25;74.25
71361;BME280;59166;48.908;1.870;2023-08-07T18:33:32;100727.34;;;19.06;74.42
71361;BME280;59166;48.908;1.870;2023-08-07T18:38:32;100733.66;;;18.93;75.79
71361;BME280;59166;48.908;1.870;2023-08-07T18:43:34;100729.47;;;18.82;74.07
71361;BME280;59166;48.908;1.870;2023-08-07T18:48:35;100731.03;;;18.74;74.73
71361;BME280;59166;48.908;1.870;2023-08-07T18:53:36;100727.47;;;18.60;77.07
71361;BME280;59166;48.908;1.870;2023-08-07T18:58:38;100740.44;;;18.41;78.30
71361;BME280;59166;48.908;1.870;2023-08-07T19:03:39;100738.25;;;18.38;78.01
71361;BME280;59166;48.908;1.870;2023-08-07T19:08:40;100742.00;;;18.28;75.89
71361;BME280;59166;48.908;1.870;2023-08-07T19:13:42;100733.97;;;18.18;75.85
71361;BME280;59166;48.908;1.870;2023-08-07T19:18:43;100743.44;;;18.07;74.78
71361;BME280;59166;48.908;1.870;2023-08-07T19:23:43;100744.63;;;18.01;75.20
71361;BME280;59166;48.908;1.870;2023-08-07T19:28:45;100742.75;;;17.83;74.47
71361;BME280;59166;48.908;1.870;2023-08-07T19:33:46;100742.59;;;17.74;73.88
71361;BME280;59166;48.908;1.870;2023-08-07T19:38:48;100738.69;;;17.62;73.93
71361;BME280;59166;48.908;1.870;2023-08-07T19:43:50;100740.75;;;17.51;75.69
71361;BME280;59166;48.908;1.870;2023-08-07T19:48:51;100741.72;;;17.41;76.48
71361;BME280;59166;48.908;1.870;2023-08-07T19:53:51;100755.56;;;17.26;78.54
71361;BME280;59166;48.908;1.870;2023-08-07T19:58:53;100760.06;;;17.17;80.72
71361;BME280;59166;48.908;1.870;2023-08-07T20:03:54;100760.91;;;17.13;81.06
71361;BME280;59166;48.908;1.870;2023-08-07T20:08:54;100766.00;;;17.01;81.64
71361;BME280;59166;48.908;1.870;2023-08-07T20:13:56;100770.47;;;16.91;83.74
71361;BME280;59166;48.908;1.870;2023-08-07T20:18:57;100769.44;;;16.87;83.09
71361;BME280;59166;48.908;1.870;2023-08-07T20:23:58;100765.06;;;16.86;84.02
71361;BME280;59166;48.908;1.870;2023-08-07T20:29:00;100770.28;;;16.83;86.06
71361;BME280;59166;48.908;1.870;2023-08-07T20:34:01;100760.78;;;16.80;85.81
71361;BME280;59166;48.908;1.870;2023-08-07T20:39:01;100756.41;;;16.79;85.75
71361;BME280;59166;48.908;1.870;2023-08-07T20:44:03;100754.03;;;16.73;86.37
71361;BME280;59166;48.908;1.870;2023-08-07T20:49:04;100745.03;;;16.72;86.29
71361;BME280;59166;48.908;1.870;2023-08-07T20:54:04;100732.78;;;16.70;86.27
71361;BME280;59166;48.908;1.870;2023-08-07T20:59:07;100730.72;;;16.62;85.42
71361;BME280;59166;48.908;1.870;2023-08-07T21:04:07;100730.75;;;16.57;86.58
71361;BME280;59166;48.908;1.870;2023-08-07T21:09:08;100737.06;;;16.52;88.15
71361;BME280;59166;48.908;1.870;2023-08-07T21:14:11;100732.72;;;16.51;88.54
71361;BME280;59166;48.908;1.870;2023-08-07T21:19:12;100726.16;;;16.52;89.26
71361;BME280;59166;48.908;1.870;2023-08-07T21:24:13;100726.16;;;16.52;91.68
71361;BME280;59166;48.908;1.870;2023-08-07T21:29:15;100726.47;;;16.51;88.90
71361;BME280;59166;48.908;1.870;2023-08-07T21:34:16;100717.81;;;16.43;89.31
71361;BME280;59166;48.908;1.870;2023-08-07T21:39:16;100721.38;;;16.39;90.61
71361;BME280;59166;48.908;1.870;2023-08-07T21:44:18;100719.00;;;16.32;91.97
71361;BME280;59166;48.908;1.870;2023-08-07T21:49:19;100710.00;;;16.32;92.95
71361;BME280;59166;48.908;1.870;2023-08-07T21:54:19;100694.78;;;16.31;91.15
71361;BME280;59166;48.908;1.870;2023-08-07T21:59:22;100699.16;;;16.27;91.25
71361;BME280;59166;48.908;1.870;2023-08-07T22:04:22;100706.59;;;16.21;92.16
71361;BME280;59166;48.908;1.870;2023-08-07T22:09:23;100697.41;;;16.12;92.43
71361;BME280;59166;48.908;1.870;2023-08-07T22:14:25;100698.56;;;16.01;92.03
71361;BME280;59166;48.908;1.870;2023-08-07T22:19:25;100692.66;;;15.94;93.16
71361;BME280;59166;48.908;1.870;2023-08-07T22:24:26;100689.72;;;15.85;92.74
71361;BME280;59166;48.908;1.870;2023-08-07T22:29:28;100696.56;;;15.83;94.36
71361;BME280;59166;48.908;1.870;2023-08-07T22:34:29;100702.09;;;15.73;93.52
71361;BME280;59166;48.908;1.870;2023-08-07T22:39:29;100703.53;;;15.60;95.56
71361;BME280;59166;48.908;1.870;2023-08-07T22:44:31;100697.84;;;15.57;97.06
71361;BME280;59166;48.908;1.870;2023-08-07T22:49:32;100700.56;;;15.57;97.75
71361;BME280;59166;48.908;1.870;2023-08-07T22:54:32;100691.84;;;15.60;97.85
71361;BME280;59166;48.908;1.870;2023-08-07T22:59:35;100683.13;;;15.58;96.91
71361;BME280;59166;48.908;1.870;2023-08-07T23:04:35;100678.50;;;15.58;97.67
71361;BME280;59166;48.908;1.870;2023-08-07T23:09:36;100677.16;;;15.56;99.39
71361;BME280;59166;48.908;1.870;2023-08-07T23:14:38;100682.31;;;15.57;98.67
71361;BME280;59166;48.908;1.870;2023-08-07T23:19:39;100674.44;;;15.56;98.81
71361;BME280;59166;48.908;1.870;2023-08-07T23:24:40;100666.28;;;15.51;98.90
71361;BME280;59166;48.908;1.870;2023-08-07T23:29:42;100669.56;;;15.53;99.52
71361;BME280;59166;48.908;1.870;2023-08-07T23:34:43;100664.94;;;15.53;100.00
71361;BME280;59166;48.908;1.870;2023-08-07T23:39:44;100664.34;;;15.56;100.00
71361;BME280;59166;48.908;1.870;2023-08-07T23:44:46;100658.91;;;15.56;100.00
71361;BME280;59166;48.908;1.870;2023-08-07T23:49:47;100658.63;;;15.58;100.00
71361;BME280;59166;48.908;1.870;2023-08-07T23:54:48;100652.66;;;15.56;100.00
71361;BME280;59166;48.908;1.870;2023-08-07T23:59:50;100654.31;;;15.52;100.00
